Time;durP1;ratioP1;P1;durP2;ratioP2;P2;SDS_P1;SDS_P2;PMS_P1;PMS_P2;Temp;Humidity;BMP_temperature;BMP_pressure;BME280_temperature;BME280_humidity;BME280_pressure;Samples;Min_cycle;Max_cycle;Signal;HPM_P1;HPM_P2
2022/10/28 00:01:16;;;;;;;6.90;1.10;;;24.00;52.80;;;;;;4044461;29;20962;-65
2022/10/28 00:03:44;;;;;;;4.80;1.20;;;24.00;52.50;;;;;;4048050;29;20124;-64
2022/10/28 00:06:16;;;;;;;7.60;1.55;;;24.00;52.50;;;;;;4050217;29;20036;-61
2022/10/28 00:08:38;;;;;;;1.80;0.85;;;24.00;52.60;;;;;;4052909;29;20046;-62
2022/10/28 00:11:09;;;;;;;1.55;0.90;;;24.00;52.70;;;;;;4054861;28;20040;-64
2022/10/28 00:13:32;;;;;;;2.92;0.88;;;24.00;52.70;;;;;;4051208;29;20411;-63
2022/10/28 00:15:54;;;;;;;1.20;0.65;;;24.00;52.90;;;;;;4054681;29;20036;-64
2022/10/28 00:18:17;;;;;;;2.53;0.70;;;24.00;52.90;;;;;;4044125;29;20059;-68
2022/10/28 00:20:39;;;;;;;3.10;0.80;;;24.10;52.90;;;;;;4050010;29;20071;-65
2022/10/28 00:23:02;;;;;;;2.83;1.00;;;24.10;52.90;;;;;;4050309;29;20123;-67
2022/10/28 00:25:24;;;;;;;8.35;1.73;;;24.10;52.40;;;;;;4053941;29;20044;-64
2022/10/28 00:27:47;;;;;;;14.13;1.95;;;24.10;52.40;;;;;;4054982;29;20480;-65
2022/10/28 00:30:10;;;;;;;14.90;2.08;;;24.10;52.40;;;;;;4053176;29;20037;-67
2022/10/28 00:32:32;;;;;;;16.83;2.80;;;24.20;52.50;;;;;;4052060;29;20083;-66
2022/10/28 00:34:55;;;;;;;11.75;1.85;;;24.20;52.40;;;;;;4055689;29;20345;-68
2022/10/28 00:37:17;;;;;;;13.40;2.05;;;24.20;52.30;;;;;;4048995;29;20394;-62
2022/10/28 00:39:40;;;;;;;14.95;2.33;;;24.20;52.40;;;;;;4045930;29;20054;-66
2022/10/28 00:42:03;;;;;;;8.73;1.58;;;24.20;52.40;;;;;;4046008;29;20505;-66
2022/10/28 00:44:46;;;;;;;15.25;2.17;;;24.20;52.30;;;;;;4044038;29;20032;-66
2022/10/28 00:47:11;;;;;;;5.80;1.17;;;24.20;52.40;;;;;;4048814;29;20040;-58
2022/10/28 00:49:34;;;;;;;8.50;1.30;;;24.20;52.30;;;;;;4045478;29;20036;-61
2022/10/28 00:52:12;;;;;;;9.23;1.50;;;24.20;52.00;;;;;;4047932;29;20040;-64
2022/10/28 00:54:36;;;;;;;6.80;1.30;;;24.20;50.90;;;;;;4049108;29;20040;-63
2022/10/28 00:57:03;;;;;;;3.67;0.93;;;24.20;50.30;;;;;;4049739;29;20044;-67
2022/10/28 00:59:29;;;;;;;3.83;1.10;;;24.10;49.80;;;;;;4044949;29;20048;-67
2022/10/28 01:01:51;;;;;;;4.45;1.00;;;24.10;49.90;;;;;;4049178;29;20043;-67
2022/10/28 01:04:14;;;;;;;4.97;1.07;;;24.10;50.10;;;;;;4042194;29;20051;-66
2022/10/28 01:06:37;;;;;;;7.80;1.02;;;24.10;50.40;;;;;;4045344;29;20039;-64
2022/10/28 01:09:00;;;;;;;1.77;0.80;;;24.20;50.50;;;;;;4042786;29;20036;-67
2022/10/28 01:11:31;;;;;;;2.92;0.93;;;24.20;50.50;;;;;;4046061;29;20400;-64
2022/10/28 01:14:05;;;;;;;3.78;0.82;;;24.20;50.60;;;;;;4043123;29;20243;-63
2022/10/28 01:16:49;;;;;;;3.08;0.95;;;24.20;50.70;;;;;;4045711;29;20706;-65
2022/10/28 01:20:02;;;;;;;5.53;0.80;;;24.20;50.60;;;;;;4044246;29;20063;-64
2022/10/28 01:22:50;;;;;;;5.45;0.98;;;24.20;50.80;;;;;;4028613;29;20068;-62
2022/10/28 01:25:29;;;;;;;2.67;1.13;;;24.20;50.70;;;;;;4049430;29;20118;-63
2022/10/28 01:28:06;;;;;;;2.58;0.88;;;24.20;50.90;;;;;;4047888;29;20040;-57
2022/10/28 01:30:51;;;;;;;8.45;1.05;;;24.20;50.70;;;;;;4050284;29;20043;-57
2022/10/28 01:33:24;;;;;;;17.83;1.55;;;24.20;50.30;;;;;;4050222;29;20047;-55
2022/10/28 01:35:56;;;;;;;10.80;1.35;;;24.20;50.20;;;;;;4052902;29;20055;-59
2022/10/28 01:39:01;;;;;;;1.65;0.85;;;24.20;50.40;;;;;;4051655;29;20048;-58
2022/10/28 01:41:29;;;;;;;10.40;1.38;;;24.20;50.10;;;;;;4039744;29;20047;-60
2022/10/28 01:44:00;;;;;;;5.30;1.17;;;24.20;50.60;;;;;;4051296;29;20044;-59
2022/10/28 01:46:37;;;;;;;11.93;1.45;;;24.20;50.40;;;;;;4041352;29;20503;-58
2022/10/28 01:49:07;;;;;;;7.47;1.00;;;24.20;50.80;;;;;;4052009;29;20524;-59
2022/10/28 01:51:53;;;;;;;2.80;0.75;;;24.30;51.70;;;;;;4051449;29;20519;-59
2022/10/28 01:54:19;;;;;;;5.03;0.88;;;24.30;51.90;;;;;;4047691;29;20111;-60
2022/10/28 01:56:43;;;;;;;5.57;1.10;;;24.40;52.00;;;;;;4050937;29;20039;-59
2022/10/28 01:59:10;;;;;;;3.60;0.68;;;24.40;51.90;;;;;;4052405;29;20048;-60
2022/10/28 02:01:35;;;;;;;2.42;0.98;;;24.40;51.70;;;;;;4051117;29;20041;-59
2022/10/28 02:03:57;;;;;;;3.63;1.10;;;24.50;51.70;;;;;;4053765;29;20051;-58
2022/10/28 02:06:24;;;;;;;4.25;0.82;;;24.50;51.60;;;;;;4055046;29;20046;-59
2022/10/28 02:09:12;;;;;;;5.00;1.30;;;24.50;51.50;;;;;;4054634;29;20040;-59
2022/10/28 02:11:47;;;;;;;2.05;1.00;;;24.50;51.40;;;;;;4053529;29;20040;-58
2022/10/28 02:14:21;;;;;;;3.05;1.00;;;24.60;51.50;;;;;;4051068;29;20547;-60
2022/10/28 02:16:49;;;;;;;1.77;0.70;;;24.60;51.30;;;;;;4050802;29;20565;-58
2022/10/28 02:19:29;;;;;;;3.45;1.00;;;24.60;51.20;;;;;;4053145;29;20672;-58
2022/10/28 02:22:22;;;;;;;2.35;0.90;;;24.60;51.10;;;;;;4053722;29;20040;-62
2022/10/28 02:25:03;;;;;;;1.40;0.82;;;24.60;50.90;;;;;;4050916;29;20059;-62
2022/10/28 02:27:54;;;;;;;3.67;0.93;;;24.70;51.00;;;;;;4045765;29;20122;-63
2022/10/28 02:30:23;;;;;;;0.77;0.60;;;24.70;51.00;;;;;;4053489;29;20051;-56
2022/10/28 02:32:51;;;;;;;1.50;0.80;;;24.70;50.90;;;;;;4051529;29;20047;-57
2022/10/28 02:35:25;;;;;;;2.17;1.10;;;24.70;50.80;;;;;;4051539;29;20688;-57
2022/10/28 02:37:50;;;;;;;2.00;1.10;;;24.80;50.70;;;;;;4042608;29;20050;-58
2022/10/28 02:40:20;;;;;;;3.25;0.98;;;24.80;50.70;;;;;;4043517;29;20048;-58
2022/10/28 02:42:58;;;;;;;5.15;0.95;;;24.80;50.50;;;;;;4043318;29;20040;-58
2022/10/28 02:45:41;;;;;;;1.90;0.77;;;24.80;50.60;;;;;;4045184;29;20127;-57
2022/10/28 02:48:10;;;;;;;1.88;0.63;;;24.80;50.60;;;;;;4045440;29;20040;-58
2022/10/28 02:50:40;;;;;;;8.05;1.20;;;24.80;50.60;;;;;;4047337;29;20032;-58
2022/10/28 02:53:10;;;;;;;1.45;0.63;;;24.80;50.60;;;;;;4045846;29;20041;-57
2022/10/28 02:55:37;;;;;;;2.95;0.70;;;24.80;50.50;;;;;;4043611;29;20542;-58
2022/10/28 02:58:00;;;;;;;4.03;0.80;;;24.90;50.60;;;;;;4049168;29;20050;-59
2022/10/28 03:00:23;;;;;;;4.97;1.00;;;24.90;49.60;;;;;;4049709;29;20092;-58
2022/10/28 03:02:46;;;;;;;6.18;0.90;;;24.80;49.10;;;;;;4052855;29;20135;-58
2022/10/28 03:05:09;;;;;;;3.28;0.82;;;24.80;49.80;;;;;;4050651;29;20068;-59
2022/10/28 03:07:32;;;;;;;1.15;0.63;;;24.80;49.30;;;;;;4049929;29;20040;-60
2022/10/28 03:09:54;;;;;;;4.55;0.73;;;24.80;49.50;;;;;;4050439;29;20036;-59
2022/10/28 03:12:17;;;;;;;3.25;0.80;;;24.90;49.70;;;;;;4048987;29;20800;-58
2022/10/28 03:14:41;;;;;;;3.72;0.63;;;24.90;49.80;;;;;;4045638;29;20149;-60
2022/10/28 03:17:04;;;;;;;9.32;0.90;;;24.90;49.80;;;;;;4047007;29;20064;-59
2022/10/28 03:19:26;;;;;;;2.75;0.68;;;24.90;50.00;;;;;;4051162;29;20052;-58
2022/10/28 03:21:49;;;;;;;3.28;1.27;;;25.00;50.00;;;;;;4050601;29;20535;-58
2022/10/28 03:24:11;;;;;;;2.60;0.77;;;25.00;49.90;;;;;;4051284;29;20060;-57
2022/10/28 03:26:34;;;;;;;1.52;0.77;;;25.00;50.00;;;;;;4053624;29;20044;-61
2022/10/28 03:28:56;;;;;;;3.55;0.80;;;25.10;50.00;;;;;;4048841;29;20444;-60
2022/10/28 03:31:19;;;;;;;1.42;0.88;;;25.10;50.10;;;;;;4046614;29;20046;-59
2022/10/28 03:33:41;;;;;;;3.50;0.70;;;25.10;50.10;;;;;;4051948;29;21082;-58
2022/10/28 03:36:04;;;;;;;1.80;0.70;;;25.10;50.10;;;;;;4053135;29;20102;-59
2022/10/28 03:38:27;;;;;;;0.85;0.50;;;25.10;50.00;;;;;;4052892;29;20166;-58
2022/10/28 03:40:50;;;;;;;0.70;0.50;;;25.20;50.00;;;;;;4049691;29;20155;-58
2022/10/28 03:43:12;;;;;;;3.90;0.75;;;25.20;50.00;;;;;;4049285;29;20051;-59
2022/10/28 03:45:35;;;;;;;1.65;0.57;;;25.30;49.90;;;;;;4049516;29;20140;-58
2022/10/28 03:47:58;;;;;;;1.20;0.68;;;25.30;49.80;;;;;;4048515;29;20047;-59
2022/10/28 03:50:20;;;;;;;1.27;0.60;;;25.40;49.70;;;;;;4051717;29;20128;-58
2022/10/28 03:52:44;;;;;;;3.35;0.98;;;25.40;49.70;;;;;;4048295;29;20480;-57
2022/10/28 03:55:07;;;;;;;1.02;0.68;;;25.40;49.60;;;;;;4044800;29;20229;-58
2022/10/28 03:57:33;;;;;;;2.20;1.02;;;25.50;49.60;;;;;;4045890;29;20051;-56
2022/10/28 03:59:56;;;;;;;3.05;0.70;;;25.50;49.50;;;;;;4047032;29;20048;-58
2022/10/28 04:02:18;;;;;;;2.25;0.60;;;25.60;49.40;;;;;;4049115;29;20131;-59
2022/10/28 04:04:41;;;;;;;2.20;0.80;;;25.70;49.30;;;;;;4042949;29;20544;-58
2022/10/28 04:07:04;;;;;;;0.50;0.50;;;25.70;49.20;;;;;;4049235;29;20123;-60
2022/10/28 04:09:26;;;;;;;3.40;0.55;;;25.70;49.10;;;;;;4047903;29;20043;-60
2022/10/28 04:11:49;;;;;;;1.77;0.80;;;25.80;49.10;;;;;;4051891;29;20047;-58
2022/10/28 04:14:11;;;;;;;3.72;0.60;;;25.90;48.60;;;;;;4052462;29;20032;-60
2022/10/28 04:16:34;;;;;;;6.22;0.70;;;25.90;48.40;;;;;;4045483;29;20130;-59
2022/10/28 04:18:56;;;;;;;1.00;0.80;;;26.00;48.40;;;;;;4045196;29;20402;-58
2022/10/28 04:21:19;;;;;;;1.60;0.40;;;26.10;48.30;;;;;;4045820;29;20095;-56
2022/10/28 04:23:41;;;;;;;9.40;0.90;;;26.20;48.20;;;;;;4043359;29;20105;-59
2022/10/28 04:26:05;;;;;;;2.28;0.68;;;26.20;48.30;;;;;;4043888;29;20054;-58
2022/10/28 04:28:27;;;;;;;2.03;0.57;;;26.20;48.20;;;;;;4044809;29;20115;-61
2022/10/28 04:30:50;;;;;;;1.35;0.52;;;26.30;48.10;;;;;;4051976;29;20067;-59
2022/10/28 04:33:13;;;;;;;6.05;0.55;;;26.40;48.10;;;;;;4045208;29;20451;-60
2022/10/28 04:35:38;;;;;;;3.67;0.80;;;26.50;48.10;;;;;;4055579;29;20099;-62
2022/10/28 04:38:00;;;;;;;0.60;0.40;;;26.60;48.10;;;;;;4055321;29;20531;-60
2022/10/28 04:40:23;;;;;;;0.82;0.60;;;26.60;48.00;;;;;;4052122;29;20084;-57
2022/10/28 04:42:45;;;;;;;0.57;0.57;;;26.70;47.80;;;;;;4046488;29;20047;-59
2022/10/28 04:45:08;;;;;;;3.35;0.55;;;26.80;47.80;;;;;;4045453;29;20136;-59
2022/10/28 04:47:31;;;;;;;1.75;0.43;;;26.90;47.70;;;;;;4044165;29;20256;-57
2022/10/28 04:49:53;;;;;;;5.88;1.17;;;27.00;47.60;;;;;;4046711;29;20649;-59
2022/10/28 04:52:16;;;;;;;0.52;0.35;;;27.00;47.50;;;;;;4046689;29;20050;-58
2022/10/28 04:54:38;;;;;;;1.98;0.40;;;27.10;47.40;;;;;;4043165;29;20476;-58
2022/10/28 04:57:01;;;;;;;1.48;0.70;;;27.20;47.30;;;;;;4048354;29;20052;-57
2022/10/28 04:59:23;;;;;;;1.27;0.50;;;27.20;47.10;;;;;;4048213;29;20063;-59
2022/10/28 05:01:46;;;;;;;1.98;0.50;;;27.30;47.00;;;;;;4048132;29;20216;-56
2022/10/28 05:04:08;;;;;;;0.75;0.50;;;27.40;47.00;;;;;;4051619;29;20052;-59
2022/10/28 06:54:59;;;;;;;2.05;0.77;;;27.20;42.10;;;;;;420650;27;20564;-67
2022/10/28 06:57:21;;;;;;;3.40;0.90;;;27.20;42.10;;;;;;4020738;29;20332;-56
2022/10/28 06:59:44;;;;;;;3.70;0.82;;;27.10;42.10;;;;;;4025099;29;20516;-58
2022/10/28 07:02:08;;;;;;;4.57;0.68;;;27.10;42.40;;;;;;4026814;29;20121;-58
2022/10/28 07:04:32;;;;;;;1.83;0.60;;;27.10;42.60;;;;;;4026771;29;20814;-58
2022/10/28 07:06:56;;;;;;;1.33;0.50;;;27.10;42.80;;;;;;4015966;29;20056;-59
2022/10/28 07:09:18;;;;;;;3.22;0.82;;;27.10;42.90;;;;;;4026752;29;20072;-59
2022/10/28 07:11:44;;;;;;;2.90;0.70;;;27.10;43.00;;;;;;4011472;29;20038;-59
2022/10/28 07:14:07;;;;;;;2.85;0.70;;;27.10;43.20;;;;;;4012463;29;20561;-59
2022/10/28 07:16:29;;;;;;;1.90;0.80;;;27.10;43.30;;;;;;4012470;29;20059;-59
2022/10/28 07:18:52;;;;;;;1.35;0.75;;;27.10;43.30;;;;;;4010825;29;20052;-59
2022/10/28 07:21:17;;;;;;;1.30;0.45;;;27.00;43.30;;;;;;4010616;29;20073;-58
2022/10/28 07:23:39;;;;;;;0.93;0.60;;;27.10;43.40;;;;;;4012120;29;20584;-58
2022/10/28 07:26:02;;;;;;;1.00;0.50;;;27.00;43.50;;;;;;4016278;29;20056;-59
2022/10/28 07:28:25;;;;;;;0.63;0.40;;;27.00;43.50;;;;;;4007930;29;20106;-59
2022/10/28 07:30:49;;;;;;;1.70;0.70;;;27.00;43.60;;;;;;4010539;29;20276;-60
2022/10/28 07:33:11;;;;;;;0.68;0.40;;;26.90;43.70;;;;;;4012949;29;20050;-57
2022/10/28 07:35:34;;;;;;;1.38;0.63;;;26.90;43.80;;;;;;4011678;29;20113;-59
2022/10/28 07:37:57;;;;;;;1.67;0.70;;;26.90;43.90;;;;;;4012733;29;20110;-58
2022/10/28 07:40:21;;;;;;;0.93;0.52;;;26.80;44.10;;;;;;4012155;29;20072;-59
2022/10/28 07:42:43;;;;;;;2.13;0.63;;;26.80;44.00;;;;;;4011938;29;20568;-59
2022/10/28 07:45:06;;;;;;;1.27;0.50;;;26.80;44.30;;;;;;4023894;29;20048;-59
2022/10/28 07:47:29;;;;;;;2.33;0.68;;;26.80;44.10;;;;;;4012614;29;20053;-60
2022/10/28 07:49:53;;;;;;;1.88;0.50;;;26.80;44.20;;;;;;4010205;29;20052;-59
2022/10/28 07:52:15;;;;;;;1.20;0.70;;;26.70;44.10;;;;;;4013520;29;20494;-57
2022/10/28 07:54:38;;;;;;;1.17;0.47;;;26.70;44.20;;;;;;4009880;29;20535;-60
2022/10/28 07:57:01;;;;;;;0.65;0.50;;;26.70;44.30;;;;;;4012210;29;20120;-58
2022/10/28 07:59:24;;;;;;;1.65;0.60;;;26.70;44.20;;;;;;4010888;29;20621;-59
2022/10/28 08:01:47;;;;;;;0.77;0.40;;;26.60;44.30;;;;;;4024305;29;20041;-57
2022/10/28 08:04:09;;;;;;;1.08;0.52;;;26.70;44.30;;;;;;4010988;29;20109;-59
2022/10/28 08:06:34;;;;;;;0.75;0.45;;;26.60;44.30;;;;;;4011486;29;20856;-59
2022/10/28 08:08:57;;;;;;;0.63;0.35;;;26.60;44.40;;;;;;4011991;29;20498;-59
2022/10/28 08:11:23;;;;;;;1.45;0.50;;;26.60;44.40;;;;;;4011029;29;20043;-59
2022/10/28 08:13:47;;;;;;;0.43;0.30;;;26.60;44.40;;;;;;4012039;29;20715;-60
2022/10/28 08:16:09;;;;;;;;;;;26.60;44.50;;;;;;4011369;29;20087;-58
2022/10/28 08:18:31;;;;;;;0.50;0.40;;;26.50;44.50;;;;;;4023088;29;20318;-57
2022/10/28 08:20:54;;;;;;;0.73;0.40;;;26.50;44.50;;;;;;4010915;29;20088;-58
2022/10/28 08:23:17;;;;;;;1.42;0.52;;;26.50;44.50;;;;;;4012726;29;20049;-57
2022/10/28 08:25:48;;;;;;;1.02;0.47;;;26.50;44.50;;;;;;4011259;29;20139;-57
2022/10/28 08:28:10;;;;;;;0.50;0.40;;;26.50;44.60;;;;;;4005891;29;20522;-57
2022/10/28 08:30:33;;;;;;;0.95;0.40;;;26.50;44.60;;;;;;4011798;29;21039;-57
2022/10/28 08:32:55;;;;;;;1.40;0.60;;;26.40;44.70;;;;;;4011630;29;20052;-57
2022/10/28 08:35:18;;;;;;;0.57;0.40;;;26.40;44.60;;;;;;4023311;29;20049;-57
2022/10/28 08:37:44;;;;;;;0.40;0.38;;;26.40;44.80;;;;;;4009937;29;20046;-58
2022/10/28 08:40:11;;;;;;;1.83;0.60;;;26.40;44.70;;;;;;4011178;29;20136;-57
2022/10/28 08:42:51;;;;;;;0.95;0.60;;;26.40;44.70;;;;;;4010109;29;20045;-58
2022/10/28 08:45:16;;;;;;;1.02;0.40;;;26.40;44.80;;;;;;4011730;29;20463;-56
2022/10/28 08:47:46;;;;;;;1.42;0.50;;;26.30;44.80;;;;;;4011788;29;20076;-57
2022/10/28 08:50:21;;;;;;;0.88;0.40;;;26.30;44.80;;;;;;4012080;29;20054;-59
2022/10/28 08:53:15;;;;;;;0.50;0.32;;;26.30;45.00;;;;;;4012850;29;20933;-58
2022/10/28 08:55:46;;;;;;;0.43;0.38;;;26.20;44.80;;;;;;4014713;29;20450;-58
2022/10/28 08:58:32;;;;;;;1.02;0.55;;;26.30;44.90;;;;;;4015080;29;20045;-58
2022/10/28 09:00:58;;;;;;;1.50;0.60;;;26.20;44.80;;;;;;4025564;29;20397;-58
2022/10/28 09:03:23;;;;;;;2.30;0.80;;;26.20;44.90;;;;;;4009222;29;20253;-58
2022/10/28 09:05:48;;;;;;;0.98;0.50;;;26.20;45.00;;;;;;4026610;29;20048;-58
2022/10/28 09:08:32;;;;;;;1.55;0.70;;;26.20;44.90;;;;;;4014686;29;20376;-56
2022/10/28 09:11:15;;;;;;;1.15;0.70;;;26.20;45.00;;;;;;4013090;29;20047;-57
2022/10/28 09:14:10;;;;;;;0.60;0.60;;;26.20;45.00;;;;;;4014591;29;20493;-58
2022/10/28 09:17:16;;;;;;;2.15;1.08;;;26.10;45.00;;;;;;4014101;29;20489;-54
2022/10/28 09:19:50;;;;;;;2.75;1.20;;;26.10;45.00;;;;;;4012308;29;20049;-57
2022/10/28 09:22:36;;;;;;;4.82;1.10;;;26.10;45.30;;;;;;4014449;29;20055;-56
2022/10/28 09:25:11;;;;;;;1.95;0.90;;;26.10;45.40;;;;;;4014001;29;20076;-58
2022/10/28 09:27:39;;;;;;;2.20;1.25;;;26.00;45.20;;;;;;4012851;29;20049;-58
2022/10/28 09:30:32;;;;;;;1.63;1.02;;;26.00;45.30;;;;;;4015395;29;20446;-58
2022/10/28 09:33:07;;;;;;;3.30;1.60;;;26.00;45.40;;;;;;4013828;29;20053;-58
2022/10/28 09:35:36;;;;;;;3.28;1.23;;;26.00;45.20;;;;;;4010693;29;20053;-59
2022/10/28 09:38:20;;;;;;;2.20;1.00;;;26.00;45.50;;;;;;4010613;29;20061;-57
2022/10/28 09:40:45;;;;;;;;;;;26.00;45.50;;;;;;4011330;29;20038;-57
2022/10/28 09:43:16;;;;;;;2.30;1.23;;;25.90;45.50;;;;;;4010661;29;19920;-56
2022/10/28 09:45:45;;;;;;;2.70;1.20;;;25.90;45.50;;;;;;4012069;29;20045;-54
2022/10/28 09:48:19;;;;;;;3.10;1.40;;;25.90;45.50;;;;;;4008847;29;20065;-58
2022/10/28 09:50:43;;;;;;;;;;;25.90;45.50;;;;;;4012172;29;20200;-56
2022/10/28 09:53:23;;;;;;;1.95;1.02;;;25.90;45.60;;;;;;4010352;29;20415;-55
2022/10/28 09:55:45;;;;;;;3.63;1.38;;;25.90;45.60;;;;;;4010280;29;20072;-55
2022/10/28 09:58:11;;;;;;;3.30;1.10;;;25.80;45.60;;;;;;4007527;29;20048;-58
2022/10/28 10:00:34;;;;;;;3.58;1.38;;;25.80;45.40;;;;;;4008833;29;20470;-55
2022/10/28 10:02:58;;;;;;;1.42;1.00;;;25.80;45.50;;;;;;4007114;29;20095;-56
2022/10/28 10:05:20;;;;;;;;;;;25.80;45.60;;;;;;4007469;29;20045;-57
2022/10/28 10:07:59;;;;;;;2.63;1.00;;;25.70;45.60;;;;;;4011934;29;19947;-57
2022/10/28 10:10:24;;;;;;;2.03;1.02;;;25.70;45.30;;;;;;4023670;29;20045;-56
2022/10/28 10:12:49;;;;;;;1.95;1.20;;;25.70;45.50;;;;;;4019169;29;20310;-58
2022/10/28 10:15:21;;;;;;;2.30;1.27;;;25.70;45.50;;;;;;4020703;29;20044;-57
2022/10/28 10:17:46;;;;;;;2.47;1.27;;;25.70;46.20;;;;;;4010339;29;20053;-58
2022/10/28 10:20:18;;;;;;;5.30;1.38;;;25.70;45.70;;;;;;4010957;29;20054;-57
2022/10/28 10:22:45;;;;;;;2.25;1.13;;;25.70;45.60;;;;;;4011085;29;20081;-58
2022/10/28 10:25:31;;;;;;;1.15;0.90;;;25.70;45.40;;;;;;4010757;29;20362;-57
2022/10/28 10:28:13;;;;;;;1.30;0.80;;;25.70;45.60;;;;;;4010971;29;20042;-58
2022/10/28 10:30:46;;;;;;;2.78;1.30;;;25.60;45.50;;;;;;4008069;29;20164;-58
2022/10/28 10:33:43;;;;;;;2.00;0.98;;;25.60;45.80;;;;;;4008314;29;20049;-57
2022/10/28 10:36:13;;;;;;;1.50;1.00;;;25.60;45.70;;;;;;4008945;29;20136;-58
2022/10/28 10:38:38;;;;;;;0.77;0.65;;;25.50;45.60;;;;;;4009642;29;20086;-58
2022/10/28 10:41:01;;;;;;;1.75;1.00;;;25.50;45.40;;;;;;4010325;29;20045;-58
2022/10/28 10:43:30;;;;;;;2.25;1.05;;;25.50;45.40;;;;;;4007169;29;20048;-58
2022/10/28 10:46:13;;;;;;;2.53;1.05;;;25.50;45.60;;;;;;4010271;29;20061;-56
2022/10/28 10:48:36;;;;;;;1.35;0.98;;;25.50;45.50;;;;;;4010831;29;20413;-58
2022/10/28 10:51:03;;;;;;;1.75;0.82;;;25.50;45.60;;;;;;4010422;29;20120;-57
2022/10/28 10:53:29;;;;;;;3.25;0.90;;;25.50;45.60;;;;;;4009790;29;20425;-59
2022/10/28 10:55:56;;;;;;;2.38;1.02;;;25.40;45.70;;;;;;4008541;29;20112;-58
2022/10/28 10:58:25;;;;;;;1.08;0.75;;;25.40;45.50;;;;;;4009371;29;20054;-55
2022/10/28 11:00:55;;;;;;;2.08;0.98;;;25.40;45.70;;;;;;4009178;29;20057;-59
2022/10/28 11:03:29;;;;;;;1.33;0.80;;;25.40;45.60;;;;;;4010146;29;20312;-60
2022/10/28 11:05:57;;;;;;;1.27;0.80;;;25.40;45.70;;;;;;4010398;29;20049;-57
2022/10/28 11:08:27;;;;;;;1.83;1.10;;;25.40;45.80;;;;;;4009365;29;20052;-59
2022/10/28 11:11:12;;;;;;;1.08;0.82;;;25.30;45.60;;;;;;4009381;29;20074;-59
2022/10/28 11:13:34;;;;;;;;;;;25.30;45.80;;;;;;4007841;29;20051;-57
2022/10/28 11:16:05;;;;;;;1.70;1.05;;;25.30;45.90;;;;;;4010205;29;19973;-58
2022/10/28 11:18:30;;;;;;;1.65;0.70;;;25.30;45.60;;;;;;4006439;29;20060;-59
2022/10/28 11:21:03;;;;;;;1.33;0.88;;;25.20;45.80;;;;;;4009050;29;20132;-57
2022/10/28 11:23:34;;;;;;;1.40;0.75;;;25.20;45.70;;;;;;4008959;29;20228;-59
2022/10/28 11:26:03;;;;;;;3.00;0.80;;;25.20;45.70;;;;;;4009770;29;20132;-58
2022/10/28 11:28:32;;;;;;;1.45;0.95;;;25.20;45.70;;;;;;4007041;29;20073;-59
2022/10/28 11:31:07;;;;;;;3.42;0.93;;;25.20;45.60;;;;;;4010299;29;20060;-57
2022/10/28 11:33:39;;;;;;;1.63;0.95;;;25.20;45.90;;;;;;4009273;29;20045;-59
2022/10/28 11:36:20;;;;;;;1.25;0.77;;;25.20;45.60;;;;;;4009075;29;20507;-58
2022/10/28 11:39:09;;;;;;;1.45;0.88;;;25.10;45.60;;;;;;4009325;29;20686;-59
2022/10/28 11:41:49;;;;;;;1.20;0.88;;;25.10;45.70;;;;;;4009791;29;20048;-59
2022/10/28 11:44:18;;;;;;;1.25;0.80;;;25.10;45.90;;;;;;4007376;29;20049;-59
2022/10/28 11:47:00;;;;;;;1.98;0.88;;;25.10;45.90;;;;;;4006618;29;20417;-59
2022/10/28 11:49:44;;;;;;;1.83;0.85;;;25.10;45.90;;;;;;4010422;29;20047;-55
2022/10/28 11:52:34;;;;;;;3.13;1.13;;;25.00;45.50;;;;;;4002708;29;20455;-61
2022/10/28 11:55:18;;;;;;;1.33;0.90;;;25.00;45.40;;;;;;4009886;29;20718;-62
2022/10/28 11:58:35;;;;;;;1.00;0.70;;;25.00;43.70;;;;;;4007726;29;20044;-61
2022/10/28 12:01:03;;;;;;;2.38;0.90;;;24.90;43.20;;;;;;3993280;29;20809;-61
2022/10/28 12:03:47;;;;;;;2.72;0.73;;;24.90;44.00;;;;;;4009885;29;20081;-62
2022/10/28 12:06:16;;;;;;;4.55;1.00;;;24.90;44.10;;;;;;4010216;29;20045;-58
2022/10/28 12:08:46;;;;;;;3.80;0.77;;;24.80;44.30;;;;;;4010934;29;21189;-60
2022/10/28 12:11:30;;;;;;;6.40;1.08;;;24.80;44.80;;;;;;4009639;29;20152;-59
2022/10/28 12:14:21;;;;;;;3.83;1.23;;;24.80;45.10;;;;;;4009302;29;20041;-59
2022/10/28 12:17:13;;;;;;;3.53;1.00;;;24.80;45.50;;;;;;4009285;29;20127;-63
2022/10/28 12:19:59;;;;;;;3.80;0.98;;;24.80;45.70;;;;;;4009210;29;20047;-60
2022/10/28 12:22:27;;;;;;;6.22;1.00;;;24.80;45.70;;;;;;4007563;29;20137;-61
2022/10/28 12:24:52;;;;;;;5.63;0.82;;;24.80;46.10;;;;;;4021846;29;20068;-58
2022/10/28 12:27:41;;;;;;;1.98;0.93;;;24.80;46.20;;;;;;4009015;29;20105;-59
2022/10/28 12:30:21;;;;;;;3.83;1.33;;;24.70;46.50;;;;;;4008328;29;20474;-62
2022/10/28 12:32:44;;;;;;;33.85;1.55;;;24.80;46.60;;;;;;4010557;29;20053;-60
2022/10/28 12:35:16;;;;;;;1.25;0.85;;;24.70;46.50;;;;;;4007367;29;20067;-61
2022/10/28 12:37:42;;;;;;;1.55;0.98;;;24.70;46.50;;;;;;4010346;29;20040;-62
2022/10/28 12:40:24;;;;;;;3.35;0.85;;;24.70;46.60;;;;;;4010898;29;20124;-62
2022/10/28 12:42:56;;;;;;;2.47;1.08;;;24.70;46.60;;;;;;4008630;29;20543;-64
2022/10/28 12:45:21;;;;;;;2.17;0.82;;;24.70;46.70;;;;;;4008011;29;20137;-63
2022/10/28 12:47:54;;;;;;;1.98;0.70;;;24.70;46.70;;;;;;4009553;29;20057;-62
2022/10/28 12:50:38;;;;;;;6.05;0.80;;;24.70;46.70;;;;;;4007960;29;20042;-63
2022/10/28 12:53:16;;;;;;;2.72;1.00;;;24.60;46.70;;;;;;4010102;29;20051;-63
2022/10/28 12:55:56;;;;;;;2.92;0.90;;;24.60;46.80;;;;;;4010499;29;20140;-60
2022/10/28 12:58:56;;;;;;;3.83;0.82;;;24.60;46.80;;;;;;4009926;29;20121;-62
2022/10/28 13:01:21;;;;;;;2.72;0.80;;;24.60;46.80;;;;;;4009124;29;20465;-64
2022/10/28 13:03:44;;;;;;;4.65;1.20;;;24.60;46.80;;;;;;4009486;29;20459;-59
2022/10/28 13:06:37;;;;;;;1.50;0.63;;;24.60;47.00;;;;;;4013447;29;20100;-61
2022/10/28 13:09:33;;;;;;;2.90;0.88;;;24.60;47.00;;;;;;4007701;29;20065;-58
2022/10/28 13:12:11;;;;;;;0.90;0.63;;;24.60;47.20;;;;;;4009175;29;20387;-63
2022/10/28 13:15:11;;;;;;;6.15;0.98;;;24.60;47.20;;;;;;4009882;29;20052;-62
2022/10/28 13:17:40;;;;;;;7.90;1.13;;;24.50;47.20;;;;;;4009905;29;20038;-60
2022/10/28 13:20:26;;;;;;;1.65;0.88;;;24.50;47.40;;;;;;4009399;29;20416;-60
2022/10/28 13:22:55;;;;;;;17.50;1.80;;;24.50;47.60;;;;;;4009061;29;20167;-55
2022/10/28 13:25:39;;;;;;;2.30;0.90;;;24.50;47.10;;;;;;4009738;29;20045;-59
2022/10/28 13:28:02;;;;;;;7.88;1.30;;;24.40;47.10;;;;;;4009162;29;20064;-57
2022/10/28 13:30:26;;;;;;;4.22;0.93;;;24.50;47.20;;;;;;4007638;29;20038;-60
2022/10/28 13:33:13;;;;;;;2.00;0.95;;;24.50;47.20;;;;;;4008562;29;20401;-58
2022/10/28 13:35:36;;;;;;;3.83;0.95;;;24.40;47.00;;;;;;4009746;29;20054;-59
2022/10/28 13:38:00;;;;;;;1.95;0.85;;;24.40;47.10;;;;;;4007748;29;20042;-59
2022/10/28 13:40:43;;;;;;;1.83;0.70;;;24.40;47.00;;;;;;4012863;29;20048;-60
2022/10/28 13:43:16;;;;;;;1.88;0.63;;;24.40;47.10;;;;;;4009568;29;20815;-59
2022/10/28 13:45:53;;;;;;;2.20;0.77;;;24.40;47.00;;;;;;4012977;29;20300;-59
2022/10/28 13:48:32;;;;;;;0.93;0.50;;;24.30;47.00;;;;;;4011669;29;20048;-59
2022/10/28 13:51:10;;;;;;;1.45;0.80;;;24.30;47.20;;;;;;4011540;29;20052;-56
2022/10/28 13:53:37;;;;;;;6.90;0.80;;;24.30;47.10;;;;;;4012770;29;20041;-59
2022/10/28 13:56:10;;;;;;;1.48;0.77;;;24.30;47.10;;;;;;4010695;29;20417;-59
2022/10/28 13:58:34;;;;;;;3.30;0.80;;;24.30;47.20;;;;;;4011358;29;20409;-60
2022/10/28 14:01:16;;;;;;;;;;;24.20;47.30;;;;;;4011156;29;20041;-59
2022/10/28 14:03:38;;;;;;;4.65;1.00;;;24.20;47.50;;;;;;4014942;29;19992;-60
2022/10/28 14:06:01;;;;;;;3.45;0.65;;;24.20;47.50;;;;;;4013745;29;20042;-60
2022/10/28 14:08:40;;;;;;;16.92;1.35;;;24.20;47.50;;;;;;4010655;29;20049;-62
2022/10/28 14:11:10;;;;;;;8.38;1.20;;;24.20;47.80;;;;;;4011532;29;20101;-58
2022/10/28 14:13:55;;;;;;;3.65;1.13;;;24.20;48.20;;;;;;4021293;29;20077;-60
2022/10/28 14:16:26;;;;;;;9.13;1.33;;;24.20;48.30;;;;;;4008851;29;20049;-60
2022/10/28 14:19:01;;;;;;;5.18;0.98;;;24.20;48.40;;;;;;4010133;29;20177;-61
2022/10/28 14:21:24;;;;;;;10.05;1.63;;;24.10;48.20;;;;;;4008578;29;20489;-61
2022/10/28 14:24:08;;;;;;;5.47;0.80;;;24.10;48.80;;;;;;4011727;29;20041;-59
2022/10/28 14:26:31;;;;;;;4.65;0.68;;;24.10;48.10;;;;;;4012586;29;20048;-61
2022/10/28 14:28:54;;;;;;;4.20;1.02;;;24.10;48.10;;;;;;4009076;29;20464;-60
2022/10/28 14:31:32;;;;;;;1.45;0.60;;;24.10;48.40;;;;;;4012684;29;20112;-60
2022/10/28 14:33:55;;;;;;;4.43;0.98;;;24.10;48.40;;;;;;4010798;29;20409;-59
2022/10/28 14:36:17;;;;;;;6.35;1.05;;;24.10;48.50;;;;;;4011312;29;20482;-62
2022/10/28 14:39:05;;;;;;;8.00;1.15;;;24.00;48.40;;;;;;4009615;29;20074;-59
2022/10/28 14:41:59;;;;;;;4.47;0.80;;;24.00;48.50;;;;;;4012491;29;20057;-59
2022/10/28 14:44:33;;;;;;;2.42;0.77;;;24.00;48.40;;;;;;4013333;29;20153;-60
2022/10/28 14:47:13;;;;;;;;;;;24.00;49.00;;;;;;4014457;29;20042;-60
2022/10/28 14:49:37;;;;;;;8.48;1.80;;;24.00;48.30;;;;;;4010406;29;19916;-60
2022/10/28 14:52:15;;;;;;;;;;;24.00;48.30;;;;;;4012881;29;20061;-60